sensor_id;sensor_type;location;lat;lon;timestamp;pressure;altitude;pressure_sealevel;temperature;humidity
84271;BME280;74614;50.032;19.566;2024-02-14T00:01:30;99166.31;;;1.32;68.39
84271;BME280;74614;50.032;19.566;2024-02-14T00:03:28;99169.77;;;1.35;67.98
84271;BME280;74614;50.032;19.566;2024-02-14T00:05:30;99170.70;;;1.40;67.68
84271;BME280;74614;50.032;19.566;2024-02-14T00:07:26;99170.87;;;1.34;67.40
84271;BME280;74614;50.032;19.566;2024-02-14T00:09:32;99175.24;;;1.26;67.33
84271;BME280;74614;50.032;19.566;2024-02-14T00:11:26;99180.18;;;1.22;67.47
84271;BME280;74614;50.032;19.566;2024-02-14T00:13:28;99181.58;;;1.18;67.29
84271;BME280;74614;50.032;19.566;2024-02-14T00:15:29;99178.91;;;1.15;67.43
84271;BME280;74614;50.032;19.566;2024-02-14T00:17:30;99179.39;;;1.09;67.27
84271;BME280;74614;50.032;19.566;2024-02-14T00:19:27;99181.22;;;1.12;67.42
84271;BME280;74614;50.032;19.566;2024-02-14T00:21:29;99185.39;;;1.11;67.57
84271;BME280;74614;50.032;19.566;2024-02-14T00:23:26;99182.71;;;1.06;67.27
84271;BME280;74614;50.032;19.566;2024-02-14T00:25:26;99188.78;;;0.99;67.25
84271;BME280;74614;50.032;19.566;2024-02-14T00:27:31;99190.26;;;0.98;67.45
84271;BME280;74614;50.032;19.566;2024-02-14T00:29:27;99188.49;;;0.97;67.27
84271;BME280;74614;50.032;19.566;2024-02-14T00:31:30;99188.07;;;0.95;67.36
84271;BME280;74614;50.032;19.566;2024-02-14T00:33:30;99187.24;;;0.95;67.42
84271;BME280;74614;50.032;19.566;2024-02-14T00:35:31;99183.70;;;0.92;67.73
84271;BME280;74614;50.032;19.566;2024-02-14T00:37:27;99188.53;;;0.94;67.87
84271;BME280;74614;50.032;19.566;2024-02-14T00:39:27;99189.63;;;0.99;67.80
84271;BME280;74614;50.032;19.566;2024-02-14T00:41:27;99190.37;;;1.04;67.51
84271;BME280;74614;50.032;19.566;2024-02-14T00:43:27;99191.75;;;1.13;67.28
84271;BME280;74614;50.032;19.566;2024-02-14T00:45:27;99191.12;;;1.13;67.24
84271;BME280;74614;50.032;19.566;2024-02-14T00:47:28;99193.33;;;1.06;67.54
84271;BME280;74614;50.032;19.566;2024-02-14T00:49:27;99190.78;;;1.09;67.92
84271;BME280;74614;50.032;19.566;2024-02-14T00:51:27;99194.00;;;1.21;67.51
84271;BME280;74614;50.032;19.566;2024-02-14T00:53:27;99199.96;;;1.17;66.84
84271;BME280;74614;50.032;19.566;2024-02-14T00:55:27;99200.53;;;1.10;66.38
84271;BME280;74614;50.032;19.566;2024-02-14T00:57:27;99201.43;;;1.02;66.65
84271;BME280;74614;50.032;19.566;2024-02-14T00:59:26;99203.51;;;0.98;67.01
84271;BME280;74614;50.032;19.566;2024-02-14T01:01:32;99204.81;;;1.00;67.18
84271;BME280;74614;50.032;19.566;2024-02-14T01:03:31;99208.38;;;1.07;67.51
84271;BME280;74614;50.032;19.566;2024-02-14T01:05:28;99204.66;;;1.12;67.42
84271;BME280;74614;50.032;19.566;2024-02-14T01:07:29;99210.50;;;1.12;67.54
84271;BME280;74614;50.032;19.566;2024-02-14T01:09:27;99213.64;;;1.14;67.75
84271;BME280;74614;50.032;19.566;2024-02-14T01:11:27;99212.15;;;1.19;67.92
84271;BME280;74614;50.032;19.566;2024-02-14T01:13:27;99214.06;;;1.24;67.73
84271;BME280;74614;50.032;19.566;2024-02-14T01:15:32;99210.89;;;1.31;67.68
84271;BME280;74614;50.032;19.566;2024-02-14T01:17:27;99213.24;;;1.48;67.72
84271;BME280;74614;50.032;19.566;2024-02-14T01:19:29;99216.28;;;1.64;67.56
84271;BME280;74614;50.032;19.566;2024-02-14T01:21:34;99213.60;;;1.70;67.36
84271;BME280;74614;50.032;19.566;2024-02-14T01:23:28;99207.29;;;1.69;67.49
84271;BME280;74614;50.032;19.566;2024-02-14T01:25:26;99206.62;;;1.70;67.48
84271;BME280;74614;50.032;19.566;2024-02-14T01:27:29;99203.94;;;1.73;67.42
84271;BME280;74614;50.032;19.566;2024-02-14T01:29:27;99205.73;;;1.75;67.50
84271;BME280;74614;50.032;19.566;2024-02-14T01:31:28;99203.18;;;1.73;67.67
84271;BME280;74614;50.032;19.566;2024-02-14T01:33:29;99201.08;;;1.78;67.61
84271;BME280;74614;50.032;19.566;2024-02-14T01:35:26;99203.45;;;1.77;67.74
84271;BME280;74614;50.032;19.566;2024-02-14T01:37:28;99195.82;;;1.71;67.67
84271;BME280;74614;50.032;19.566;2024-02-14T01:39:29;99192.93;;;1.68;67.57
84271;BME280;74614;50.032;19.566;2024-02-14T01:41:29;99201.32;;;1.63;67.73
84271;BME280;74614;50.032;19.566;2024-02-14T01:43:29;99195.85;;;1.68;67.76
84271;BME280;74614;50.032;19.566;2024-02-14T01:45:33;99193.18;;;1.79;67.81
84271;BME280;74614;50.032;19.566;2024-02-14T01:47:27;99191.28;;;1.86;67.93
84271;BME280;74614;50.032;19.566;2024-02-14T01:49:30;99194.71;;;1.90;67.84
84271;BME280;74614;50.032;19.566;2024-02-14T01:51:30;99199.97;;;1.82;68.00
84271;BME280;74614;50.032;19.566;2024-02-14T01:53:30;99198.82;;;1.81;68.04
84271;BME280;74614;50.032;19.566;2024-02-14T01:55:28;99197.25;;;1.79;68.17
84271;BME280;74614;50.032;19.566;2024-02-14T01:57:26;99191.42;;;1.72;68.11
84271;BME280;74614;50.032;19.566;2024-02-14T01:59:26;99186.91;;;1.78;68.20
84271;BME280;74614;50.032;19.566;2024-02-14T02:01:27;99190.66;;;1.97;68.14
84271;BME280;74614;50.032;19.566;2024-02-14T02:03:28;99180.89;;;2.03;67.98
84271;BME280;74614;50.032;19.566;2024-02-14T02:05:32;99183.18;;;2.01;67.90
84271;BME280;74614;50.032;19.566;2024-02-14T02:07:32;99191.09;;;2.00;68.07
84271;BME280;74614;50.032;19.566;2024-02-14T02:09:28;99189.78;;;2.15;68.04
84271;BME280;74614;50.032;19.566;2024-02-14T02:11:26;99190.52;;;2.34;67.86
84271;BME280;74614;50.032;19.566;2024-02-14T02:13:30;99188.99;;;2.52;67.55
84271;BME280;74614;50.032;19.566;2024-02-14T02:15:29;99183.78;;;2.47;67.26
84271;BME280;74614;50.032;19.566;2024-02-14T02:17:33;99186.68;;;2.29;67.57
84271;BME280;74614;50.032;19.566;2024-02-14T02:19:27;99188.78;;;2.16;68.03
84271;BME280;74614;50.032;19.566;2024-02-14T02:21:32;99189.71;;;2.10;68.27
84271;BME280;74614;50.032;19.566;2024-02-14T02:23:28;99192.82;;;2.07;68.23
84271;BME280;74614;50.032;19.566;2024-02-14T02:25:34;99193.79;;;2.06;68.30
84271;BME280;74614;50.032;19.566;2024-02-14T02:27:27;99192.10;;;2.18;68.29
84271;BME280;74614;50.032;19.566;2024-02-14T02:29:31;99189.95;;;2.21;68.34
84271;BME280;74614;50.032;19.566;2024-02-14T02:31:27;99187.02;;;2.31;68.28
84271;BME280;74614;50.032;19.566;2024-02-14T02:33:28;99185.30;;;2.30;68.00
84271;BME280;74614;50.032;19.566;2024-02-14T02:35:28;99185.16;;;2.25;68.20
84271;BME280;74614;50.032;19.566;2024-02-14T02:37:28;99183.98;;;2.21;68.36
84271;BME280;74614;50.032;19.566;2024-02-14T02:39:26;99186.19;;;2.29;68.33
84271;BME280;74614;50.032;19.566;2024-02-14T02:41:28;99187.74;;;2.46;68.11
84271;BME280;74614;50.032;19.566;2024-02-14T02:43:30;99183.95;;;2.43;67.97
84271;BME280;74614;50.032;19.566;2024-02-14T02:45:27;99186.32;;;2.45;67.99
84271;BME280;74614;50.032;19.566;2024-02-14T02:47:29;99188.42;;;2.53;67.84
84271;BME280;74614;50.032;19.566;2024-02-14T02:49:28;99188.15;;;2.41;67.54
84271;BME280;74614;50.032;19.566;2024-02-14T02:51:25;99187.59;;;2.26;68.04
84271;BME280;74614;50.032;19.566;2024-02-14T02:53:30;99185.18;;;2.19;68.16
84271;BME280;74614;50.032;19.566;2024-02-14T02:55:25;99190.17;;;2.15;68.17
84271;BME280;74614;50.032;19.566;2024-02-14T02:57:25;99195.03;;;2.18;68.28
84271;BME280;74614;50.032;19.566;2024-02-14T02:59:28;99197.75;;;2.20;68.38
84271;BME280;74614;50.032;19.566;2024-02-14T03:01:35;99195.67;;;2.19;68.28
84271;BME280;74614;50.032;19.566;2024-02-14T03:03:27;99197.91;;;2.14;68.32
84271;BME280;74614;50.032;19.566;2024-02-14T03:05:32;99196.96;;;2.16;68.21
84271;BME280;74614;50.032;19.566;2024-02-14T03:07:30;99193.22;;;2.26;68.35
84271;BME280;74614;50.032;19.566;2024-02-14T03:09:27;99197.36;;;2.21;68.30
84271;BME280;74614;50.032;19.566;2024-02-14T03:11:27;99198.36;;;2.15;68.31
84271;BME280;74614;50.032;19.566;2024-02-14T03:13:28;99201.56;;;2.18;68.29
84271;BME280;74614;50.032;19.566;2024-02-14T03:15:27;99207.54;;;2.18;68.47
84271;BME280;74614;50.032;19.566;2024-02-14T03:17:30;99199.68;;;2.27;68.48
84271;BME280;74614;50.032;19.566;2024-02-14T03:19:28;99199.36;;;2.37;68.20
84271;BME280;74614;50.032;19.566;2024-02-14T03:21:24;99199.14;;;2.27;68.35
84271;BME280;74614;50.032;19.566;2024-02-14T03:23:27;99207.65;;;2.17;68.35
84271;BME280;74614;50.032;19.566;2024-02-14T03:25:26;99205.06;;;2.07;68.44
84271;BME280;74614;50.032;19.566;2024-02-14T03:27:33;99208.24;;;2.11;68.67
84271;BME280;74614;50.032;19.566;2024-02-14T03:29:26;99207.95;;;2.12;68.80
84271;BME280;74614;50.032;19.566;2024-02-14T03:31:28;99208.49;;;2.03;68.77
84271;BME280;74614;50.032;19.566;2024-02-14T03:33:32;99210.73;;;2.00;68.78
84271;BME280;74614;50.032;19.566;2024-02-14T03:35:29;99213.24;;;2.06;68.74
84271;BME280;74614;50.032;19.566;2024-02-14T03:37:26;99214.97;;;2.11;68.60
84271;BME280;74614;50.032;19.566;2024-02-14T03:39:28;99214.12;;;2.07;68.58
84271;BME280;74614;50.032;19.566;2024-02-14T03:41:27;99212.16;;;2.12;68.66
84271;BME280;74614;50.032;19.566;2024-02-14T03:43:30;99213.90;;;2.19;68.50
84271;BME280;74614;50.032;19.566;2024-02-14T03:45:28;99210.52;;;2.37;68.31
84271;BME280;74614;50.032;19.566;2024-02-14T03:47:30;99214.67;;;2.36;68.28
84271;BME280;74614;50.032;19.566;2024-02-14T03:49:31;99218.29;;;2.36;68.29
84271;BME280;74614;50.032;19.566;2024-02-14T03:51:28;99220.51;;;2.20;68.06
84271;BME280;74614;50.032;19.566;2024-02-14T03:53:28;99219.17;;;2.19;68.36
84271;BME280;74614;50.032;19.566;2024-02-14T03:55:27;99221.84;;;2.35;68.27
84271;BME280;74614;50.032;19.566;2024-02-14T03:57:26;99220.48;;;2.35;68.06
84271;BME280;74614;50.032;19.566;2024-02-14T03:59:31;99223.87;;;2.24;68.06
84271;BME280;74614;50.032;19.566;2024-02-14T04:01:33;99227.13;;;2.10;68.43
84271;BME280;74614;50.032;19.566;2024-02-14T04:03:26;99226.45;;;2.04;68.41
84271;BME280;74614;50.032;19.566;2024-02-14T04:05:25;99233.49;;;2.01;68.43
84271;BME280;74614;50.032;19.566;2024-02-14T04:07:28;99233.00;;;1.96;68.53
84271;BME280;74614;50.032;19.566;2024-02-14T04:09:26;99236.92;;;1.92;68.39
84271;BME280;74614;50.032;19.566;2024-02-14T04:11:29;99236.85;;;1.92;68.54
84271;BME280;74614;50.032;19.566;2024-02-14T04:13:27;99237.75;;;2.03;68.69
84271;BME280;74614;50.032;19.566;2024-02-14T04:15:29;99230.08;;;1.98;68.66
84271;BME280;74614;50.032;19.566;2024-02-14T04:17:30;99234.59;;;1.93;68.68
84271;BME280;74614;50.032;19.566;2024-02-14T04:19:25;99234.93;;;1.87;68.55
84271;BME280;74614;50.032;19.566;2024-02-14T04:21:32;99239.07;;;1.81;68.58
84271;BME280;74614;50.032;19.566;2024-02-14T04:23:36;99238.30;;;1.77;68.84
84271;BME280;74614;50.032;19.566;2024-02-14T04:26:34;99243.47;;;1.70;69.21
84271;BME280;74614;50.032;19.566;2024-02-14T04:28:28;99245.52;;;1.68;68.96
84271;BME280;74614;50.032;19.566;2024-02-14T04:30:44;99242.83;;;1.77;68.97
84271;BME280;74614;50.032;19.566;2024-02-14T04:33:29;99245.31;;;1.78;68.95
84271;BME280;74614;50.032;19.566;2024-02-14T04:35:25;99243.41;;;1.75;68.79
84271;BME280;74614;50.032;19.566;2024-02-14T04:37:27;99244.72;;;1.69;68.97
84271;BME280;74614;50.032;19.566;2024-02-14T04:39:25;99239.45;;;1.58;68.57
84271;BME280;74614;50.032;19.566;2024-02-14T04:41:28;99245.99;;;1.58;68.76
84271;BME280;74614;50.032;19.566;2024-02-14T04:43:28;99245.39;;;1.54;68.85
84271;BME280;74614;50.032;19.566;2024-02-14T04:45:27;99247.06;;;1.55;68.82
84271;BME280;74614;50.032;19.566;2024-02-14T04:47:27;99246.45;;;1.53;69.00
84271;BME280;74614;50.032;19.566;2024-02-14T04:49:26;99246.94;;;1.48;69.18
84271;BME280;74614;50.032;19.566;2024-02-14T04:51:25;99243.49;;;1.47;69.15
84271;BME280;74614;50.032;19.566;2024-02-14T04:53:25;99238.64;;;1.45;69.04
84271;BME280;74614;50.032;19.566;2024-02-14T04:55:27;99244.63;;;1.47;68.91
84271;BME280;74614;50.032;19.566;2024-02-14T04:57:28;99246.42;;;1.54;68.84
84271;BME280;74614;50.032;19.566;2024-02-14T04:59:28;99246.28;;;1.57;68.75
84271;BME280;74614;50.032;19.566;2024-02-14T05:01:26;99249.63;;;1.50;68.59
84271;BME280;74614;50.032;19.566;2024-02-14T05:03:25;99249.02;;;1.42;68.58
84271;BME280;74614;50.032;19.566;2024-02-14T05:05:29;99250.43;;;1.33;68.52
84271;BME280;74614;50.032;19.566;2024-02-14T05:07:27;99250.46;;;1.26;68.76
84271;BME280;74614;50.032;19.566;2024-02-14T05:09:28;99253.04;;;1.18;68.71
84271;BME280;74614;50.032;19.566;2024-02-14T05:11:27;99258.55;;;1.12;68.47
84271;BME280;74614;50.032;19.566;2024-02-14T05:13:25;99254.74;;;1.08;68.60
84271;BME280;74614;50.032;19.566;2024-02-14T05:15:25;99256.47;;;1.17;68.36
84271;BME280;74614;50.032;19.566;2024-02-14T05:17:29;99258.37;;;1.19;68.15
84271;BME280;74614;50.032;19.566;2024-02-14T05:19:27;99254.73;;;1.13;68.32
84271;BME280;74614;50.032;19.566;2024-02-14T05:21:26;99255.16;;;1.06;68.16
84271;BME280;74614;50.032;19.566;2024-02-14T05:23:27;99250.41;;;1.01;68.35
84271;BME280;74614;50.032;19.566;2024-02-14T05:25:26;99245.85;;;0.97;68.38
84271;BME280;74614;50.032;19.566;2024-02-14T05:27:25;99247.95;;;0.98;68.52
84271;BME280;74614;50.032;19.566;2024-02-14T05:29:32;99252.45;;;1.06;68.49
84271;BME280;74614;50.032;19.566;2024-02-14T05:31:46;99250.94;;;1.15;68.21
84271;BME280;74614;50.032;19.566;2024-02-14T05:34:24;99252.69;;;1.12;67.70
84271;BME280;74614;50.032;19.566;2024-02-14T05:36:22;99249.02;;;1.02;67.80
84271;BME280;74614;50.032;19.566;2024-02-14T05:38:25;99245.01;;;0.90;68.10
84271;BME280;74614;50.032;19.566;2024-02-14T05:40:20;99254.66;;;0.85;68.30
84271;BME280;74614;50.032;19.566;2024-02-14T05:42:29;99259.94;;;0.99;68.09
84271;BME280;74614;50.032;19.566;2024-02-14T05:44:22;99262.90;;;1.07;67.92
84271;BME280;74614;50.032;19.566;2024-02-14T05:47:20;99260.14;;;1.15;67.35
84271;BME280;74614;50.032;19.566;2024-02-14T05:47:23;99261.00;;;1.13;67.36
84271;BME280;74614;50.032;19.566;2024-02-14T05:49:27;99262.49;;;1.00;67.63
84271;BME280;74614;50.032;19.566;2024-02-14T05:51:31;99260.88;;;0.85;67.92
84271;BME280;74614;50.032;19.566;2024-02-14T05:53:27;99260.05;;;0.79;68.10
84271;BME280;74614;50.032;19.566;2024-02-14T05:55:26;99258.82;;;0.73;68.04
84271;BME280;74614;50.032;19.566;2024-02-14T05:57:31;99263.03;;;0.69;68.19
84271;BME280;74614;50.032;19.566;2024-02-14T05:59:27;99264.80;;;0.63;68.19
84271;BME280;74614;50.032;19.566;2024-02-14T06:01:27;99267.91;;;0.63;68.23
84271;BME280;74614;50.032;19.566;2024-02-14T06:03:26;99266.56;;;0.61;67.82
84271;BME280;74614;50.032;19.566;2024-02-14T06:05:26;99266.22;;;0.50;67.22
84271;BME280;74614;50.032;19.566;2024-02-14T06:07:36;99266.09;;;0.36;67.97
84271;BME280;74614;50.032;19.566;2024-02-14T06:10:32;99269.07;;;0.47;68.26
84271;BME280;74614;50.032;19.566;2024-02-14T06:12:24;99265.15;;;0.48;68.21
84271;BME280;74614;50.032;19.566;2024-02-14T06:14:31;99271.89;;;0.47;67.71
84271;BME280;74614;50.032;19.566;2024-02-14T06:16:25;99277.62;;;0.42;67.90
84271;BME280;74614;50.032;19.566;2024-02-14T06:18:32;99276.81;;;0.39;68.16
84271;BME280;74614;50.032;19.566;2024-02-14T06:20:28;99278.04;;;0.45;68.37
84271;BME280;74614;50.032;19.566;2024-02-14T06:22:32;99280.74;;;0.50;68.58
84271;BME280;74614;50.032;19.566;2024-02-14T06:24:26;99282.84;;;0.51;68.59
84271;BME280;74614;50.032;19.566;2024-02-14T06:26:37;99285.28;;;0.50;68.29
84271;BME280;74614;50.032;19.566;2024-02-14T06:28:27;99279.25;;;0.47;68.28
84271;BME280;74614;50.032;19.566;2024-02-14T06:30:33;99280.52;;;0.54;68.28
84271;BME280;74614;50.032;19.566;2024-02-14T06:32:27;99286.99;;;0.60;68.37
84271;BME280;74614;50.032;19.566;2024-02-14T06:34:35;99286.42;;;0.63;68.46
84271;BME280;74614;50.032;19.566;2024-02-14T06:37:26;99290.28;;;0.77;68.54
84271;BME280;74614;50.032;19.566;2024-02-14T06:39:27;99288.92;;;0.88;68.26
84271;BME280;74614;50.032;19.566;2024-02-14T06:41:27;99293.33;;;0.94;68.08
84271;BME280;74614;50.032;19.566;2024-02-14T06:43:26;99293.63;;;0.95;67.67
84271;BME280;74614;50.032;19.566;2024-02-14T06:45:26;99297.76;;;0.00;0.00
84271;BME280;74614;50.032;19.566;2024-02-14T06:47:26;99301.63;;;0.90;67.57
84271;BME280;74614;50.032;19.566;2024-02-14T06:49:26;99301.63;;;1.04;69.61
84271;BME280;74614;50.032;19.566;2024-02-14T06:51:28;99299.64;;;1.05;68.25
84271;BME280;74614;50.032;19.566;2024-02-14T06:53:26;99303.44;;;1.12;68.31
84271;BME280;74614;50.032;19.566;2024-02-14T06:55:27;99303.95;;;1.19;68.22
84271;BME280;74614;50.032;19.566;2024-02-14T06:57:27;99313.70;;;1.20;68.02
84271;BME280;74614;50.032;19.566;2024-02-14T06:59:26;99309.15;;;1.18;68.21
84271;BME280;74614;50.032;19.566;2024-02-14T07:01:33;99313.90;;;1.28;68.34
84271;BME280;74614;50.032;19.566;2024-02-14T07:03:29;99307.90;;;1.40;67.98
84271;BME280;74614;50.032;19.566;2024-02-14T07:05:27;99309.60;;;1.55;68.10
84271;BME280;74614;50.032;19.566;2024-02-14T07:07:27;99314.82;;;1.70;67.72
84271;BME280;74614;50.032;19.566;2024-02-14T07:09:26;99317.75;;;1.90;68.04
84271;BME280;74614;50.032;19.566;2024-02-14T07:11:35;99316.03;;;2.31;67.76
84271;BME280;74614;50.032;19.566;2024-02-14T07:14:33;99309.45;;;2.64;67.44
84271;BME280;74614;50.032;19.566;2024-02-14T07:16:26;99306.35;;;2.83;67.31
84271;BME280;74614;50.032;19.566;2024-02-14T07:18:34;99303.67;;;3.14;67.10
84271;BME280;74614;50.032;19.566;2024-02-14T07:20:31;99296.06;;;3.25;66.67
84271;BME280;74614;50.032;19.566;2024-02-14T07:22:32;99296.78;;;3.38;66.47
84271;BME280;74614;50.032;19.566;2024-02-14T07:24:27;99292.55;;;3.43;66.46
84271;BME280;74614;50.032;19.566;2024-02-14T07:26:32;99297.37;;;3.61;66.79
84271;BME280;74614;50.032;19.566;2024-02-14T07:28:30;99300.04;;;3.75;65.78
84271;BME280;74614;50.032;19.566;2024-02-14T07:30:32;99297.05;;;3.83;65.88
84271;BME280;74614;50.032;19.566;2024-02-14T07:32:26;99299.10;;;3.96;65.53
84271;BME280;74614;50.032;19.566;2024-02-14T07:34:32;99294.05;;;4.14;65.07
84271;BME280;74614;50.032;19.566;2024-02-14T07:36:27;99298.54;;;4.36;64.84
84271;BME280;74614;50.032;19.566;2024-02-14T07:38:34;99301.47;;;4.52;64.61
84271;BME280;74614;50.032;19.566;2024-02-14T07:40:27;99298.63;;;4.58;64.63
84271;BME280;74614;50.032;19.566;2024-02-14T07:42:34;99292.88;;;4.69;64.47
84271;BME280;74614;50.032;19.566;2024-02-14T07:44:29;99289.48;;;4.88;64.22
84271;BME280;74614;50.032;19.566;2024-02-14T07:45:19;99287.38;;;4.96;63.88
84271;BME280;74614;50.032;19.566;2024-02-14T07:47:19;99287.43;;;5.10;63.41
84271;BME280;74614;50.032;19.566;2024-02-14T07:49:27;99284.73;;;5.22;63.05
84271;BME280;74614;50.032;19.566;2024-02-14T07:51:26;99284.83;;;5.32;63.21
84271;BME280;74614;50.032;19.566;2024-02-14T07:53:31;99287.16;;;5.53;63.24
84271;BME280;74614;50.032;19.566;2024-02-14T07:55:28;99288.29;;;5.58;63.46
84271;BME280;74614;50.032;19.566;2024-02-14T07:57:27;99296.36;;;5.66;64.50
84271;BME280;74614;50.032;19.566;2024-02-14T07:59:26;99293.34;;;5.82;64.68
84271;BME280;74614;50.032;19.566;2024-02-14T08:01:31;99296.29;;;6.10;64.43
84271;BME280;74614;50.032;19.566;2024-02-14T08:03:29;99293.90;;;6.34;63.29
84271;BME280;74614;50.032;19.566;2024-02-14T08:05:26;99294.37;;;6.58;63.65
84271;BME280;74614;50.032;19.566;2024-02-14T08:07:25;99292.19;;;6.70;63.34
84271;BME280;74614;50.032;19.566;2024-02-14T08:09:25;99291.75;;;6.90;63.28
84271;BME280;74614;50.032;19.566;2024-02-14T08:11:29;99294.39;;;7.08;63.02
84271;BME280;74614;50.032;19.566;2024-02-14T08:13:25;99287.16;;;7.22;62.22
84271;BME280;74614;50.032;19.566;2024-02-14T08:15:27;99288.87;;;7.42;62.40
84271;BME280;74614;50.032;19.566;2024-02-14T08:17:25;99287.07;;;7.50;60.46
84271;BME280;74614;50.032;19.566;2024-02-14T08:19:27;99285.48;;;7.63;60.63
84271;BME280;74614;50.032;19.566;2024-02-14T08:21:26;99285.17;;;7.68;60.97
84271;BME280;74614;50.032;19.566;2024-02-14T08:23:26;99286.21;;;7.84;61.08
84271;BME280;74614;50.032;19.566;2024-02-14T08:25:26;99286.91;;;8.00;61.02
84271;BME280;74614;50.032;19.566;2024-02-14T08:27:28;99284.59;;;8.28;59.74
84271;BME280;74614;50.032;19.566;2024-02-14T08:29:27;99285.93;;;8.34;59.84
84271;BME280;74614;50.032;19.566;2024-02-14T08:31:32;99282.51;;;8.32;59.80
84271;BME280;74614;50.032;19.566;2024-02-14T08:33:28;99280.13;;;8.24;60.16
84271;BME280;74614;50.032;19.566;2024-02-14T08:35:29;99281.15;;;8.32;59.42
84271;BME280;74614;50.032;19.566;2024-02-14T08:37:35;99280.00;;;8.52;59.60
84271;BME280;74614;50.032;19.566;2024-02-14T08:39:28;99280.24;;;8.74;57.18
84271;BME280;74614;50.032;19.566;2024-02-14T08:41:26;99281.32;;;8.78;54.35
84271;BME280;74614;50.032;19.566;2024-02-14T08:43:27;99279.61;;;8.78;56.21
84271;BME280;74614;50.032;19.566;2024-02-14T08:45:29;99274.25;;;8.72;53.97
84271;BME280;74614;50.032;19.566;2024-02-14T08:47:32;99276.48;;;8.77;55.55
84271;BME280;74614;50.032;19.566;2024-02-14T08:49:29;99272.26;;;8.92;56.21
84271;BME280;74614;50.032;19.566;2024-02-14T08:51:28;99273.53;;;8.99;51.23
84271;BME280;74614;50.032;19.566;2024-02-14T08:53:27;99270.07;;;9.04;50.63
84271;BME280;74614;50.032;19.566;2024-02-14T08:55:31;99268.90;;;9.01;48.04
84271;BME280;74614;50.032;19.566;2024-02-14T08:57:33;99265.69;;;8.95;47.75
84271;BME280;74614;50.032;19.566;2024-02-14T08:59:28;99263.09;;;8.88;48.48
84271;BME280;74614;50.032;19.566;2024-02-14T09:01:35;99265.67;;;8.84;49.44
84271;BME280;74614;50.032;19.566;2024-02-14T09:04:26;99262.33;;;8.85;48.59
84271;BME280;74614;50.032;19.566;2024-02-14T09:06:36;99268.44;;;8.88;49.86
84271;BME280;74614;50.032;19.566;2024-02-14T09:08:35;99265.14;;;8.73;48.04
84271;BME280;74614;50.032;19.566;2024-02-14T09:10:34;99266.20;;;8.66;46.95
84271;BME280;74614;50.032;19.566;2024-02-14T09:12:29;99267.36;;;8.72;47.83
84271;BME280;74614;50.032;19.566;2024-02-14T09:14:36;99268.21;;;8.63;46.63
84271;BME280;74614;50.032;19.566;2024-02-14T09:17:25;99268.29;;;8.66;47.46
84271;BME280;74614;50.032;19.566;2024-02-14T09:19:29;99268.46;;;8.71;45.65
84271;BME280;74614;50.032;19.566;2024-02-14T09:21:30;99262.07;;;8.84;47.34
84271;BME280;74614;50.032;19.566;2024-02-14T09:23:29;99266.08;;;8.94;48.30
84271;BME280;74614;50.032;19.566;2024-02-14T09:25:31;99270.79;;;9.00;49.42
84271;BME280;74614;50.032;19.566;2024-02-14T09:27:28;99264.67;;;9.05;47.86
84271;BME280;74614;50.032;19.566;2024-02-14T09:29:27;99268.95;;;9.10;46.33
84271;BME280;74614;50.032;19.566;2024-02-14T09:31:29;99264.56;;;9.10;45.39
84271;BME280;74614;50.032;19.566;2024-02-14T09:33:27;99259.18;;;9.18;47.74
84271;BME280;74614;50.032;19.566;2024-02-14T09:35:29;99255.40;;;9.25;48.25
84271;BME280;74614;50.032;19.566;2024-02-14T09:37:27;99251.07;;;9.23;44.13
84271;BME280;74614;50.032;19.566;2024-02-14T09:39:30;99251.19;;;9.24;44.84
84271;BME280;74614;50.032;19.566;2024-02-14T09:41:30;99254.95;;;9.17;43.70
84271;BME280;74614;50.032;19.566;2024-02-14T09:43:34;99254.78;;;9.18;43.45
84271;BME280;74614;50.032;19.566;2024-02-14T09:45:25;99257.38;;;9.19;44.15
84271;BME280;74614;50.032;19.566;2024-02-14T09:47:31;99265.20;;;9.13;42.60
84271;BME280;74614;50.032;19.566;2024-02-14T09:49:26;99264.09;;;9.06;42.00
84271;BME280;74614;50.032;19.566;2024-02-14T09:51:29;99266.35;;;9.09;42.02
84271;BME280;74614;50.032;19.566;2024-02-14T09:53:29;99265.89;;;9.01;41.17
84271;BME280;74614;50.032;19.566;2024-02-14T09:55:51;99269.16;;;9.05;42.97
84271;BME280;74614;50.032;19.566;2024-02-14T09:58:28;99267.86;;;8.90;44.17
84271;BME280;74614;50.032;19.566;2024-02-14T10:00:31;99274.14;;;8.95;42.00
84271;BME280;74614;50.032;19.566;2024-02-14T10:02:31;99272.89;;;9.09;45.76
84271;BME280;74614;50.032;19.566;2024-02-14T10:04:32;99275.60;;;9.04;42.98
84271;BME280;74614;50.032;19.566;2024-02-14T10:06:28;99268.51;;;9.08;41.84
84271;BME280;74614;50.032;19.566;2024-02-14T10:08:28;99264.25;;;9.06;41.14
84271;BME280;74614;50.032;19.566;2024-02-14T10:10:32;99258.67;;;9.14;42.40
84271;BME280;74614;50.032;19.566;2024-02-14T10:12:29;99253.08;;;9.23;41.77
84271;BME280;74614;50.032;19.566;2024-02-14T10:14:27;99248.32;;;9.23;41.19
84271;BME280;74614;50.032;19.566;2024-02-14T10:16:27;99247.95;;;9.29;41.99
84271;BME280;74614;50.032;19.566;2024-02-14T10:18:29;99251.29;;;9.36;41.87
84271;BME280;74614;50.032;19.566;2024-02-14T10:20:29;99255.90;;;9.41;43.33
84271;BME280;74614;50.032;19.566;2024-02-14T10:22:32;99254.97;;;0.00;0.00
84271;BME280;74614;50.032;19.566;2024-02-14T10:24:32;-3200.00;;;0.00;0.00
84271;BME280;74614;50.032;19.566;2024-02-14T10:26:28;99249.49;;;9.12;41.21
84271;BME280;74614;50.032;19.566;2024-02-14T10:28:28;99251.38;;;9.16;41.87
84271;BME280;74614;50.032;19.566;2024-02-14T10:30:29;99246.97;;;9.15;41.79
84271;BME280;74614;50.032;19.566;2024-02-14T10:32:27;99244.08;;;9.18;42.00
84271;BME280;74614;50.032;19.566;2024-02-14T10:34:29;99243.85;;;9.19;41.66
84271;BME280;74614;50.032;19.566;2024-02-14T10:36:29;99246.75;;;9.17;42.26
84271;BME280;74614;50.032;19.566;2024-02-14T10:37:29;99245.39;;;9.18;41.68
84271;BME280;74614;50.032;19.566;2024-02-14T10:40:27;99234.88;;;9.26;43.63
84271;BME280;74614;50.032;19.566;2024-02-14T10:42:27;99236.09;;;9.26;43.62